^^
Your Local Weather - Clay, NY Station Historical Data
Daily Summary for September 15, 2017 Units:  English    Metric   Both
« Previous Day
Next Day »
Daily Weekly Monthly Yearly Custom
  High: Low: Average:
Temperature: 79.9 °F 55.4 °F 66.3 °F
Dew Point: 66.6 °F 54.0 °F 61 °F
Humidity: 95% 58% 84%
Wind Speed: 3.0mph 0.0mph 0.4mph
Wind Gust: 5.0mph - -
Wind- - WSW
Pressure: 30.10 in 29.91 in -
Precipitation: 0.00 in    
Historical Graphs
 
 
Tabular Data for September 15, 2017
Time Temperature Dew Point Pressure Wind Wind Speed Wind Gust Humidity Rainfall Rate (Hourly) solar
00:04 60.2 °F 58.5 °F 29.91 in Calm     94% 0.00 in 0 W/m2
00:09 60.3 °F 58.6 °F 29.91 in Calm     94% 0.00 in 0 W/m2
00:16 60.3 °F 58.6 °F 29.91 in Calm     94% 0.00 in 0 W/m2
00:22 60.2 °F 58.5 °F 29.91 in Calm     94% 0.00 in 0 W/m2
00:28 60.3 °F 58.6 °F 29.91 in Calm     94% 0.00 in 0 W/m2
00:33 60.3 °F 58.6 °F 29.91 in Calm     94% 0.00 in 0 W/m2
00:39 60.3 °F 58.6 °F 29.91 in Calm     94% 0.00 in 0 W/m2
00:45 60.3 °F 58.6 °F 29.91 in Calm     94% 0.00 in 0 W/m2
00:52 60.3 °F 58.6 °F 29.91 in Calm     94% 0.00 in 0 W/m2
00:58 60.3 °F 58.6 °F 29.91 in Calm     94% 0.00 in 0 W/m2
01:03 60.3 °F 58.6 °F 29.92 in Calm     94% 0.00 in 0 W/m2
01:10 60.3 °F 58.6 °F 29.92 in Calm     94% 0.00 in 0 W/m2
01:15 60.4 °F 58.7 °F 29.92 in Calm     94% 0.00 in 0 W/m2
01:22 60.4 °F 58.7 °F 29.92 in Calm     94% 0.00 in 0 W/m2
01:28 60.3 °F 58.6 °F 29.92 in Calm     94% 0.00 in 0 W/m2
01:33 60.2 °F 58.5 °F 29.92 in Calm     94% 0.00 in 0 W/m2
01:39 60.2 °F 58.5 °F 29.93 in Calm     94% 0.00 in 0 W/m2
01:46 60.3 °F 58.6 °F 29.93 in Calm     94% 0.00 in 0 W/m2
01:52 60.2 °F 58.5 °F 29.93 in Calm     94% 0.00 in 0 W/m2
01:58 60.2 °F 58.5 °F 29.93 in Calm     94% 0.00 in 0 W/m2
02:03 60.2 °F 58.5 °F 29.93 in Calm     94% 0.00 in 0 W/m2
02:09 60.2 °F 58.5 °F 29.93 in Calm     94% 0.00 in 0 W/m2
02:16 60.2 °F 58.5 °F 29.93 in Calm     94% 0.00 in 0 W/m2
02:22 60.2 °F 58.5 °F 29.93 in Calm     94% 0.00 in 0 W/m2
02:28 60.0 °F 58.3 °F 29.93 in Calm     94% 0.00 in 0 W/m2
02:33 59.9 °F 58.2 °F 29.93 in Calm     94% 0.00 in 0 W/m2
02:40 59.8 °F 58.1 °F 29.93 in Calm     94% 0.00 in 0 W/m2
02:45 59.6 °F 57.9 °F 29.93 in Calm     94% 0.00 in 0 W/m2
02:52 59.5 °F 57.8 °F 29.93 in Calm     94% 0.00 in 0 W/m2
02:58 59.3 °F 57.6 °F 29.93 in Calm     94% 0.00 in 0 W/m2
03:04 59.1 °F 57.4 °F 29.94 in Calm     94% 0.00 in 0 W/m2
03:10 59.1 °F 57.4 °F 29.94 in Calm     94% 0.00 in 0 W/m2
03:15 59.1 °F 57.4 °F 29.94 in Calm     94% 0.00 in 0 W/m2
03:22 59.1 °F 57.4 °F 29.94 in Calm     94% 0.00 in 0 W/m2
03:28 59.0 °F 57.3 °F 29.94 in Calm     94% 0.00 in 0 W/m2
03:35 58.8 °F 57.1 °F 29.94 in Calm     94% 0.00 in 0 W/m2
03:42 58.8 °F 57.4 °F 29.95 in Calm     95% 0.00 in 0 W/m2
03:48 58.8 °F 57.4 °F 29.95 in Calm     95% 0.00 in 0 W/m2
03:54 58.6 °F 57.2 °F 29.95 in Calm     95% 0.00 in 0 W/m2
03:59 58.4 °F 56.7 °F 29.95 in Calm     94% 0.00 in 0 W/m2
04:05 58.3 °F 56.9 °F 29.95 in Calm     95% 0.00 in 0 W/m2
04:12 58.3 °F 56.9 °F 29.95 in Calm     95% 0.00 in 0 W/m2
04:18 58.1 °F 56.7 °F 29.96 in Calm     95% 0.00 in 0 W/m2
04:24 57.9 °F 56.2 °F 29.96 in Calm     94% 0.00 in 0 W/m2
04:29 57.8 °F 56.4 °F 29.96 in Calm     95% 0.00 in 0 W/m2
04:36 57.7 °F 56.3 °F 29.96 in Calm     95% 0.00 in 0 W/m2
04:42 57.5 °F 56.1 °F 29.96 in Calm     95% 0.00 in 0 W/m2
04:48 57.5 °F 56.1 °F 29.96 in Calm     95% 0.00 in 0 W/m2
04:53 57.4 °F 56.0 °F 29.96 in Calm     95% 0.00 in 0 W/m2
05:00 57.3 °F 55.9 °F 29.96 in Calm     95% 0.00 in 0 W/m2
05:06 57.3 °F 55.9 °F 29.96 in Calm     95% 0.00 in 0 W/m2
05:12 57.2 °F 55.8 °F 29.96 in Calm     95% 0.00 in 0 W/m2
05:18 57.1 °F 55.7 °F 29.96 in Calm     95% 0.00 in 0 W/m2
05:23 57.0 °F 55.6 °F 29.96 in Calm     95% 0.00 in 0 W/m2
05:29 56.8 °F 55.4 °F 29.96 in Calm     95% 0.00 in 0 W/m2
05:35 56.6 °F 55.2 °F 29.96 in Calm     95% 0.00 in 0 W/m2
05:42 56.6 °F 55.2 °F 29.96 in Calm     95% 0.00 in 0 W/m2
05:48 56.7 °F 55.3 °F 29.97 in Calm     95% 0.00 in 0 W/m2
05:54 56.6 °F 55.2 °F 29.97 in Calm     95% 0.00 in 0 W/m2
05:59 56.6 °F 55.2 °F 29.97 in Calm     95% 0.00 in 0 W/m2
06:05 56.5 °F 55.1 °F 29.97 in Calm     95% 0.00 in 0 W/m2
06:12 56.3 °F 54.9 °F 29.98 in Calm     95% 0.00 in 0 W/m2
06:18 56.1 °F 54.7 °F 29.98 in Calm     95% 0.00 in 0 W/m2
06:24 55.9 °F 54.5 °F 29.98 in Calm     95% 0.00 in 0 W/m2
06:29 55.9 °F 54.5 °F 29.98 in Calm     95% 0.00 in 0 W/m2
06:35 56.0 °F 54.6 °F 29.99 in Calm     95% 0.00 in 0 W/m2
06:42 55.9 °F 54.5 °F 29.99 in Calm     95% 0.00 in 0 W/m2
06:48 55.8 °F 54.4 °F 29.99 in Calm     95% 0.00 in 5 W/m2
06:54 55.7 °F 54.3 °F 29.99 in Calm     95% 0.00 in 7 W/m2
06:59 55.6 °F 54.2 °F 30.00 in Calm     95% 0.00 in 11 W/m2
07:05 55.4 °F 54.0 °F 30.00 in Calm     95% 0.00 in 12 W/m2
07:12 55.5 °F 54.1 °F 30.00 in Calm     95% 0.00 in 18 W/m2
07:18 55.5 °F 54.1 °F 30.01 in Calm     95% 0.00 in 21 W/m2
07:24 55.6 °F 54.2 °F 30.01 in Calm     95% 0.00 in 26 W/m2
07:29 55.7 °F 54.3 °F 30.01 in Calm     95% 0.00 in 35 W/m2
07:35 55.9 °F 54.5 °F 30.01 in Calm     95% 0.00 in 39 W/m2
07:42 56.4 °F 55.0 °F 30.01 in Calm     95% 0.00 in 47 W/m2
07:48 57.0 °F 55.6 °F 30.01 in Calm     95% 0.00 in 56 W/m2
07:54 57.5 °F 56.1 °F 30.01 in Calm     95% 0.00 in 60 W/m2
07:59 57.9 °F 56.5 °F 30.02 in Calm     95% 0.00 in 65 W/m2
08:05 58.4 °F 57.0 °F 30.02 in Calm     95% 0.00 in 81 W/m2
08:12 58.8 °F 57.4 °F 30.02 in Calm     95% 0.00 in 84 W/m2
08:18 59.4 °F 58.0 °F 30.02 in Calm     95% 0.00 in 95 W/m2
08:19 59.5 °F 58.1 °F 30.02 in Calm     95% 0.00 in 98 W/m2
08:26 60.5 °F 59.1 °F 30.02 in Calm     95% 0.00 in 105 W/m2
08:32 61.0 °F 59.6 °F 30.02 in Calm     95% 0.00 in 125 W/m2
08:38 61.3 °F 59.9 °F 30.03 in Calm     95% 0.00 in 134 W/m2
08:43 61.6 °F 60.2 °F 30.03 in Calm     95% 0.00 in 135 W/m2
08:50 61.8 °F 60.4 °F 30.03 in Calm     95% 0.00 in 158 W/m2
08:55 62.2 °F 60.8 °F 30.03 in Calm     95% 0.00 in 151 W/m2
09:02 62.4 °F 60.9 °F 30.03 in Calm     95% 0.00 in 188 W/m2
09:08 62.9 °F 61.4 °F 30.03 in Calm     95% 0.00 in 162 W/m2
09:13 63.0 °F 61.5 °F 30.04 in Calm     95% 0.00 in 204 W/m2
09:19 63.4 °F 61.9 °F 30.04 in Calm     95% 0.00 in 207 W/m2
09:25 63.4 °F 61.9 °F 30.04 in NNW 1.0 mph 2.0 mph 95% 0.00 in 209 W/m2
09:32 64.1 °F 62.6 °F 30.04 in NNW 1.0 mph 1.0 mph 95% 0.00 in 204 W/m2
09:38 64.5 °F 63.0 °F 30.04 in Calm   2.0 mph 95% 0.00 in 199 W/m2
09:44 64.8 °F 63.0 °F 30.05 in SW 1.0 mph 1.0 mph 94% 0.00 in 207 W/m2
09:49 65.3 °F 63.5 °F 30.05 in Calm     94% 0.00 in 204 W/m2
09:55 65.6 °F 63.5 °F 30.05 in Calm     93% 0.00 in 232 W/m2
10:02 66.0 °F 63.3 °F 30.05 in Calm   3.0 mph 91% 0.00 in 281 W/m2
10:08 66.4 °F 63.4 °F 30.05 in Calm   3.0 mph 90% 0.00 in 272 W/m2
10:16 67.0 °F 63.3 °F 30.05 in Calm     88% 0.00 in 380 W/m2
10:22 67.6 °F 63.3 °F 30.05 in Calm     86% 0.00 in 348 W/m2
10:28 67.8 °F 62.8 °F 30.06 in SW 1.0 mph 1.0 mph 84% 0.00 in 304 W/m2
10:33 68.3 °F 63.6 °F 30.06 in Calm   2.0 mph 85% 0.00 in 339 W/m2
10:40 68.7 °F 64.0 °F 30.06 in Calm     85% 0.00 in 346 W/m2
10:45 69.0 °F 63.3 °F 30.06 in SW 1.0 mph 4.0 mph 82% 0.00 in 629 W/m2
10:52 70.3 °F 63.8 °F 30.06 in SW 1.0 mph 3.0 mph 80% 0.00 in 371 W/m2
10:58 69.7 °F 63.3 °F 30.06 in Calm   3.0 mph 80% 0.00 in 355 W/m2
11:03 70.4 °F 63.9 °F 30.06 in Calm   1.0 mph 80% 0.00 in 684 W/m2
11:09 70.4 °F 63.9 °F 30.06 in Calm     80% 0.00 in 679 W/m2
11:16 72.0 °F 64.4 °F 30.05 in Calm   1.0 mph 77% 0.00 in 721 W/m2
11:22 72.4 °F 64.0 °F 30.06 in Calm   1.0 mph 75% 0.00 in 728 W/m2
11:28 71.7 °F 64.5 °F 30.05 in SW 1.0 mph 2.0 mph 78% 0.00 in 738 W/m2
11:33 71.9 °F 64.3 °F 30.05 in Calm   2.0 mph 77% 0.00 in 752 W/m2
11:39 73.0 °F 66.1 °F 30.05 in SE 1.0 mph 1.0 mph 79% 0.00 in 726 W/m2
11:46 73.5 °F 65.1 °F 30.05 in NNW 1.0 mph 4.0 mph 75% 0.00 in 721 W/m2
11:52 73.4 °F 65.0 °F 30.05 in North 2.0 mph 3.0 mph 75% 0.00 in 323 W/m2
11:58 72.4 °F 64.0 °F 30.05 in NNE 2.0 mph 4.0 mph 75% 0.00 in 742 W/m2
12:03 73.1 °F 64.3 °F 30.05 in NE 3.0 mph 3.0 mph 74% 0.00 in 749 W/m2
12:09 74.3 °F 64.7 °F 30.05 in NNW 1.0 mph 1.0 mph 72% 0.00 in 802 W/m2
12:15 75.5 °F 66.6 °F 30.04 in NNE 1.0 mph 4.0 mph 74% 0.00 in 773 W/m2
12:22 75.2 °F 65.1 °F 30.04 in NNW 1.0 mph 3.0 mph 71% 0.00 in 751 W/m2
12:28 75.0 °F 64.1 °F 30.04 in WSW 2.0 mph 4.0 mph 69% 0.00 in 735 W/m2
12:33 75.0 °F 64.1 °F 30.04 in NNW 2.0 mph 4.0 mph 69% 0.00 in 731 W/m2
12:39 74.5 °F 64.5 °F 30.04 in NNW 1.0 mph 1.0 mph 71% 0.00 in 740 W/m2
12:45 74.6 °F 65.8 °F 30.04 in Calm   2.0 mph 74% 0.00 in 745 W/m2
12:52 74.5 °F 64.9 °F 30.04 in ESE 1.0 mph 3.0 mph 72% 0.00 in 747 W/m2
12:58 75.4 °F 64.9 °F 30.04 in NNW 1.0 mph 3.0 mph 70% 0.00 in 731 W/m2
13:03 75.4 °F 64.5 °F 30.04 in North 1.0 mph 2.0 mph 69% 0.00 in 693 W/m2
13:09 75.8 °F 65.3 °F 30.04 in North 2.0 mph 2.0 mph 70% 0.00 in 710 W/m2
13:15 76.3 °F 64.5 °F 30.04 in North 2.0 mph 2.0 mph 67% 0.00 in 721 W/m2
13:22 76.3 °F 64.1 °F 30.03 in North 1.0 mph 2.0 mph 66% 0.00 in 696 W/m2
13:28 76.1 °F 63.9 °F 30.03 in NE 1.0 mph 2.0 mph 66% 0.00 in 703 W/m2
13:33 76.9 °F 66.4 °F 30.03 in South 1.0 mph 3.0 mph 70% 0.00 in 707 W/m2
13:39 77.8 °F 66.4 °F 30.03 in South 1.0 mph 1.0 mph 68% 0.00 in 722 W/m2
13:45 77.8 °F 64.6 °F 30.03 in SE 1.0 mph 1.0 mph 64% 0.00 in 705 W/m2
13:52 78.1 °F 64.5 °F 30.03 in NNE 1.0 mph 2.0 mph 63% 0.00 in 691 W/m2
13:58 77.8 °F 64.2 °F 30.03 in West 1.0 mph 2.0 mph 63% 0.00 in 693 W/m2
14:03 78.1 °F 64.9 °F 30.03 in North 1.0 mph 4.0 mph 64% 0.00 in 682 W/m2
14:09 78.3 °F 66.0 °F 30.03 in North 2.0 mph 2.0 mph 66% 0.00 in 666 W/m2
14:16 78.4 °F 65.2 °F 30.03 in North 2.0 mph 2.0 mph 64% 0.00 in 679 W/m2
14:22 78.4 °F 66.1 °F 30.03 in NNW 1.0 mph 3.0 mph 66% 0.00 in 670 W/m2
14:28 78.4 °F 63.8 °F 30.03 in NNW 2.0 mph 3.0 mph 61% 0.00 in 663 W/m2
14:36 78.8 °F 64.2 °F 30.02 in NNE 2.0 mph 3.0 mph 61% 0.00 in 643 W/m2
14:42 78.7 °F 62.7 °F 30.02 in North 2.0 mph 3.0 mph 58% 0.00 in 635 W/m2
14:48 78.9 °F 65.7 °F 30.02 in North 2.0 mph 3.0 mph 64% 0.00 in 622 W/m2
14:53 78.7 °F 65.0 °F 30.02 in NNE 2.0 mph 4.0 mph 63% 0.00 in 606 W/m2
14:59 79.0 °F 65.8 °F 30.02 in West 2.0 mph 2.0 mph 64% 0.00 in 587 W/m2
15:06 79.0 °F 64.4 °F 30.02 in NNW 1.0 mph 3.0 mph 61% 0.00 in 573 W/m2
15:12 78.7 °F 65.0 °F 30.02 in North 2.0 mph 3.0 mph 63% 0.00 in 555 W/m2
15:18 79.0 °F 64.9 °F 30.02 in North 2.0 mph 4.0 mph 62% 0.00 in 554 W/m2
15:23 78.8 °F 66.0 °F 30.02 in NW 2.0 mph 3.0 mph 65% 0.00 in 538 W/m2
15:29 78.9 °F 64.8 °F 30.02 in North 2.0 mph 2.0 mph 62% 0.00 in 526 W/m2
15:35 79.3 °F 64.2 °F 30.02 in North 2.0 mph 2.0 mph 60% 0.00 in 519 W/m2
15:42 79.9 °F 64.3 °F 30.02 in WNW 1.0 mph 1.0 mph 59% 0.00 in 508 W/m2
15:48 79.8 °F 64.2 °F 30.02 in WNW 1.0 mph 2.0 mph 59% 0.00 in 480 W/m2
15:53 79.7 °F 65.1 °F 30.02 in WNW 1.0 mph 1.0 mph 61% 0.00 in 471 W/m2
15:59 79.6 °F 64.0 °F 30.02 in NNE 1.0 mph 1.0 mph 59% 0.00 in 452 W/m2
16:06 79.2 °F 64.6 °F 30.02 in NW 2.0 mph 3.0 mph 61% 0.00 in 439 W/m2
16:12 79.4 °F 63.8 °F 30.02 in NW 1.0 mph 2.0 mph 59% 0.00 in 422 W/m2
16:18 79.4 °F 64.3 °F 30.02 in NW 1.0 mph 2.0 mph 60% 0.00 in 408 W/m2
16:23 79.8 °F 64.7 °F 30.02 in WNW 1.0 mph 3.0 mph 60% 0.00 in 396 W/m2
16:29 79.8 °F 65.2 °F 30.02 in North 1.0 mph 2.0 mph 61% 0.00 in 378 W/m2
16:35 79.2 °F 64.6 °F 30.02 in North 2.0 mph 3.0 mph 61% 0.00 in 346 W/m2
16:42 78.9 °F 65.7 °F 30.02 in NW 2.0 mph 4.0 mph 64% 0.00 in 346 W/m2
16:48 78.9 °F 64.8 °F 30.02 in WNW 2.0 mph 4.0 mph 62% 0.00 in 330 W/m2
16:53 78.9 °F 65.2 °F 30.02 in NW 2.0 mph 2.0 mph 63% 0.00 in 308 W/m2
16:59 78.7 °F 65.0 °F 30.02 in NW 1.0 mph 4.0 mph 63% 0.00 in 285 W/m2
17:05 78.6 °F 65.8 °F 30.02 in North 1.0 mph 4.0 mph 65% 0.00 in 279 W/m2
17:12 78.3 °F 65.6 °F 30.02 in NNW 1.0 mph 1.0 mph 65% 0.00 in 253 W/m2
17:18 78.0 °F 66.2 °F 30.02 in North 1.0 mph 5.0 mph 67% 0.00 in 230 W/m2
17:24 77.9 °F 66.5 °F 30.02 in ENE 1.0 mph 1.0 mph 68% 0.00 in 218 W/m2
17:29 77.8 °F 66.0 °F 30.02 in NNW 1.0 mph 1.0 mph 67% 0.00 in 204 W/m2
17:35 77.5 °F 65.7 °F 30.02 in North 1.0 mph 3.0 mph 67% 0.00 in 160 W/m2
17:42 77.0 °F 65.6 °F 30.02 in NNW 1.0 mph 2.0 mph 68% 0.00 in 158 W/m2
17:48 76.7 °F 65.8 °F 30.03 in NW 1.0 mph 2.0 mph 69% 0.00 in 81 W/m2
17:53 76.2 °F 65.3 °F 30.03 in North 1.0 mph 1.0 mph 69% 0.00 in 132 W/m2
18:00 76.1 °F 66.0 °F 30.03 in North 1.0 mph 1.0 mph 71% 0.00 in 118 W/m2
18:05 75.8 °F 65.3 °F 30.03 in Calm   1.0 mph 70% 0.00 in 70 W/m2
18:12 75.4 °F 65.3 °F 30.03 in NNW 1.0 mph 1.0 mph 71% 0.00 in 54 W/m2
18:18 75.0 °F 65.0 °F 30.04 in NW 1.0 mph 2.0 mph 71% 0.00 in 47 W/m2
18:23 74.6 °F 65.0 °F 30.04 in NW 1.0 mph 1.0 mph 72% 0.00 in 42 W/m2
18:30 74.2 °F 64.6 °F 30.04 in Calm     72% 0.00 in 37 W/m2
18:35 73.9 °F 65.1 °F 30.04 in Calm     74% 0.00 in 32 W/m2
18:42 73.5 °F 65.5 °F 30.04 in Calm     76% 0.00 in 26 W/m2
18:48 72.9 °F 64.9 °F 30.04 in Calm     76% 0.00 in 19 W/m2
18:53 72.5 °F 64.9 °F 30.04 in Calm     77% 0.00 in 14 W/m2
18:59 72.0 °F 65.1 °F 30.04 in Calm     79% 0.00 in 11 W/m2
19:05 71.5 °F 65.0 °F 30.05 in Calm     80% 0.00 in 5 W/m2
19:12 70.9 °F 64.8 °F 30.05 in Calm     81% 0.00 in 0 W/m2
19:18 70.2 °F 64.4 °F 30.05 in Calm     82% 0.00 in 0 W/m2
19:23 69.6 °F 63.9 °F 30.04 in Calm     82% 0.00 in 0 W/m2
19:29 69.1 °F 63.7 °F 30.05 in Calm     83% 0.00 in 0 W/m2
19:35 68.5 °F 63.5 °F 30.05 in Calm     84% 0.00 in 0 W/m2
19:42 68.1 °F 63.4 °F 30.05 in Calm     85% 0.00 in 0 W/m2
19:48 67.6 °F 63.3 °F 30.05 in Calm     86% 0.00 in 0 W/m2
19:53 67.3 °F 63.0 °F 30.06 in Calm     86% 0.00 in 0 W/m2
19:59 67.0 °F 63.0 °F 30.06 in Calm     87% 0.00 in 0 W/m2
20:05 66.7 °F 63.0 °F 30.06 in Calm     88% 0.00 in 0 W/m2
20:12 66.4 °F 62.7 °F 30.06 in Calm     88% 0.00 in 0 W/m2
20:18 66.2 °F 62.5 °F 30.07 in Calm     88% 0.00 in 0 W/m2
20:23 66.0 °F 62.3 °F 30.07 in Calm     88% 0.00 in 0 W/m2
20:29 65.8 °F 62.5 °F 30.07 in Calm     89% 0.00 in 0 W/m2
20:36 65.5 °F 62.2 °F 30.07 in Calm     89% 0.00 in 0 W/m2
20:42 65.4 °F 62.1 °F 30.07 in Calm     89% 0.00 in 0 W/m2
20:48 65.2 °F 62.2 °F 30.07 in Calm     90% 0.00 in 0 W/m2
20:55 65.0 °F 62.0 °F 30.08 in Calm     90% 0.00 in 0 W/m2
21:02 64.8 °F 61.8 °F 30.08 in Calm     90% 0.00 in 0 W/m2
21:08 64.5 °F 61.5 °F 30.08 in Calm     90% 0.00 in 0 W/m2
21:13 64.2 °F 61.2 °F 30.08 in Calm     90% 0.00 in 0 W/m2
21:20 63.9 °F 61.2 °F 30.08 in Calm     91% 0.00 in 0 W/m2
21:25 63.7 °F 61.0 °F 30.08 in Calm     91% 0.00 in 0 W/m2
21:32 63.5 °F 60.8 °F 30.08 in Calm     91% 0.00 in 0 W/m2
21:38 63.4 °F 60.7 °F 30.08 in Calm     91% 0.00 in 0 W/m2
21:43 63.4 °F 60.7 °F 30.08 in Calm     91% 0.00 in 0 W/m2
21:50 63.3 °F 60.9 °F 30.09 in Calm     92% 0.00 in 0 W/m2
21:55 63.1 °F 60.4 °F 30.09 in Calm     91% 0.00 in 0 W/m2
22:02 62.9 °F 60.5 °F 30.09 in Calm     92% 0.00 in 0 W/m2
22:08 62.8 °F 60.4 °F 30.09 in Calm     92% 0.00 in 0 W/m2
22:13 62.7 °F 60.3 °F 30.09 in Calm     92% 0.00 in 0 W/m2
22:20 62.4 °F 60.0 °F 30.09 in Calm     92% 0.00 in 0 W/m2
22:25 62.2 °F 59.8 °F 30.09 in Calm     92% 0.00 in 0 W/m2
22:32 61.9 °F 59.5 °F 30.10 in Calm     92% 0.00 in 0 W/m2
22:38 61.7 °F 59.4 °F 30.10 in Calm     92% 0.00 in 0 W/m2
22:43 61.8 °F 59.5 °F 30.10 in Calm     92% 0.00 in 0 W/m2
22:49 61.8 °F 59.5 °F 30.10 in Calm     92% 0.00 in 0 W/m2
22:56 61.6 °F 59.6 °F 30.10 in Calm     93% 0.00 in 0 W/m2
23:02 61.5 °F 59.5 °F 30.10 in Calm     93% 0.00 in 0 W/m2
23:08 61.3 °F 59.0 °F 30.10 in Calm     92% 0.00 in 0 W/m2
23:13 61.0 °F 58.7 °F 30.10 in Calm     92% 0.00 in 0 W/m2
23:19 60.8 °F 58.8 °F 30.10 in Calm     93% 0.00 in 0 W/m2
23:26 60.6 °F 58.3 °F 30.10 in Calm     92% 0.00 in 0 W/m2
23:32 60.5 °F 58.5 °F 30.10 in Calm     93% 0.00 in 0 W/m2
23:38 60.4 °F 58.4 °F 30.10 in Calm     93% 0.00 in 0 W/m2
23:39 60.4 °F 58.4 °F 30.10 in Calm     93% 0.00 in 0 W/m2
23:45 60.4 °F 58.4 °F 30.10 in Calm     93% 0.00 in 0 W/m2
23:52 60.4 °F 58.4 °F 30.10 in Calm     93% 0.00 in 0 W/m2
23:58 60.2 °F 58.2 °F 30.10 in Calm     93% 0.00 in 0 W/m2
Country Meadow, Clay, NY, USA
Compliments of Weather Underground - 2 mb